Aérodrome :
LOGIN :

S'inscrire | Disclaimer

   EN    FR    IT 

 










Légende :    VFR   VFR Marginal   IFR   IFR Intensif   IFR Très Intensif
Visi : 
Plafond : 
>= 8 km
>= 3000ft
5 à 8 km
1000 à 3000 ft
1500m à 5 km
500 à 1000 ft
800 à 1500m
200 à 500 ft
< 800m
< 200 ft
Symboles :   Orages  Brouillard  Fortes neiges  Fortes précipitations  Vent > 20 kt
SIGMETs :   Divers  Orages  Givrage  Turbulence  Onde Orograph.  Cendres Volcan.






- Altitude de l'aérodrome : 1411 ft
- Code IATA : GVA


LSGG - Genève Cointrin

DERNIER METAR :
  • 190520Z VRB03KT 9999 FEW025 M01/M01 Q1015 NOSIG

METARs EXPIRÉS :
  • 190450Z VRB01KT CAVOK M01/M01 Q1014 NOSIG
  • 190420Z AUTO 26002KT 9999 FEW031 M01/M01 Q1014 NOSIG
  • 190350Z AUTO 23002KT 9999 FEW030 M01/M01 Q1015 NOSIG
  • 190320Z AUTO VRB02KT 9999 FEW030 M00/M01 Q1015 NOSIG
  • 190250Z AUTO 24002KT 9999 BKN030 M00/M01 Q1015 NOSIG

TAF TAF LSGG
Valide du 19 à 06h jusqu'au 20 à 12h UTC


190525Z 1906/2012 VRB03KT 9999 SCT030 TX06/1914Z TNM01/1906Z TN01/2006Z
BECMG 1909/1911 05010KT
BECMG 1922/2001 BKN012
ATIS : +41 22 417 40 81



MET'MAP, la Météo Aéronautique d'un coup d'oeil ! - Copyright ORBIFLY Décembre 2007 - Disclaimer

ORBIFLY MET'MAP TEAM :

Programmation & Développement : Alexandra Zaïnal
Conception & Développement : Baudouin d'Aumeries
Co-Programmation & Développement : Marc-Olivier Méhu
Soutien technique & logistique : Manuel Goepfert

Contact : metmap@orbifly.com




SOURCES & CREDITS :

   NOAA